createdAt,value
2017-03-04T00:00:04.821Z,89.69
2017-03-04T00:00:47.575Z,89.6
2017-03-04T00:01:30.474Z,90.26
2017-03-04T00:05:26.183Z,90.08
2017-03-04T00:07:48.004Z,89.98
2017-03-04T00:08:30.115Z,90.26
2017-03-04T00:09:12.710Z,90.17
2017-03-04T00:09:55.278Z,89.89
2017-03-04T00:11:50.478Z,89.89
2017-03-04T00:12:32.638Z,90.26
2017-03-04T00:13:15.151Z,90.08
2017-03-04T00:13:57.692Z,90.26
2017-03-04T00:14:40.418Z,90.08
2017-03-04T00:15:23.373Z,90.45
2017-03-04T00:16:06.019Z,90.45
2017-03-04T00:16:48.783Z,90.55
2017-03-04T00:17:30.141Z,90.55
2017-03-04T00:18:10.900Z,90.36
2017-03-04T00:18:53.182Z,90.55
2017-03-04T00:19:35.873Z,90.45
2017-03-04T00:20:18.778Z,90.08
2017-03-04T00:21:01.898Z,90.55
2017-03-04T00:21:44.296Z,89.98
2017-03-04T00:22:26.100Z,89.89
2017-03-04T00:24:42.242Z,90.17
2017-03-04T00:25:25.122Z,89.98
2017-03-04T00:26:07.679Z,89.98
2017-03-04T00:26:50.378Z,90.17
2017-03-04T00:27:32.836Z,89.89
2017-03-04T00:29:28.115Z,90.17
2017-03-04T00:30:10.661Z,89.98
2017-03-04T00:30:53.293Z,89.69
2017-03-04T00:31:35.775Z,89.98
2017-03-04T00:32:18.378Z,89.89
2017-03-04T00:33:01.140Z,89.89
2017-03-04T00:33:43.866Z,89.98
2017-03-04T00:34:26.590Z,89.79
2017-03-04T00:35:08.907Z,90.17
2017-03-04T00:35:51.051Z,90.08
2017-03-04T00:37:40.812Z,90.17
2017-03-04T00:38:23.604Z,90.08
2017-03-04T00:40:13.429Z,90.74
2017-03-04T00:40:55.736Z,90.36
2017-03-04T00:41:38.277Z,90.55
2017-03-04T00:42:20.770Z,90.45
2017-03-04T00:43:03.474Z,90.17
2017-03-04T00:43:45.998Z,90.17
2017-03-04T00:44:28.469Z,90.45
2017-03-04T00:45:11.443Z,90.45
2017-03-04T00:45:54.060Z,90.36
2017-03-04T00:46:36.658Z,90.08
2017-03-04T00:48:53.463Z,89.98
2017-03-04T00:49:36.083Z,89.89
2017-03-04T00:50:18.311Z,89.89
2017-03-04T00:51:01.033Z,90.26
2017-03-04T00:53:02.122Z,89.03
2017-03-04T00:53:44.840Z,89.03
2017-03-04T00:54:27.060Z,89.22
2017-03-04T00:55:09.501Z,89.03
2017-03-04T00:55:52.287Z,89.22
2017-03-04T00:56:34.813Z,88.84
2017-03-04T00:57:17.362Z,89.6
2017-03-04T00:59:33.488Z,89.22
2017-03-04T01:00:15.925Z,90.17
2017-03-04T01:00:58.337Z,89.98
2017-03-04T01:02:53.361Z,89.74
2017-03-04T01:03:35.594Z,89.74
2017-03-04T01:04:18.235Z,89.83
2017-03-04T01:06:19.061Z,89.69
2017-03-04T01:07:01.288Z,89.5
2017-03-04T01:07:43.884Z,89.69
2017-03-04T01:08:26.616Z,89.98
2017-03-04T01:09:09.131Z,90.17
2017-03-04T01:09:51.573Z,90.26
2017-03-04T01:10:33.743Z,89.89
2017-03-04T01:12:55.511Z,89.79
2017-03-04T01:13:38.517Z,90.08
2017-03-04T01:14:20.645Z,90.08
2017-03-04T01:16:36.966Z,89.79
2017-03-04T01:17:19.206Z,89.89
2017-03-04T01:18:01.318Z,89.79
2017-03-04T01:18:44.151Z,89.89
2017-03-04T01:19:26.456Z,89.89
2017-03-04T01:20:09.020Z,89.98
2017-03-04T01:21:58.782Z,90.08
2017-03-04T01:23:54.005Z,90.45
2017-03-04T01:24:36.409Z,90.17
2017-03-04T01:25:18.787Z,90.45
2017-03-04T01:26:01.305Z,90.17
2017-03-04T01:27:56.410Z,90.84
2017-03-04T01:28:38.516Z,90.93
2017-03-04T01:30:33.857Z,90.74
2017-03-04T01:31:16.607Z,90.55
2017-03-04T01:31:59.230Z,90.64
2017-03-04T01:35:33.519Z,90.36
2017-03-04T01:36:15.980Z,90.84
2017-03-04T01:36:58.361Z,91.22
2017-03-04T01:39:14.634Z,90.84
2017-03-04T01:39:57.332Z,90.93
2017-03-04T01:40:40.206Z,90.93
2017-03-04T01:42:35.715Z,90.64
2017-03-04T01:43:18.574Z,90.74
2017-03-04T01:45:08.481Z,90.55
2017-03-04T01:45:51.070Z,90.55
2017-03-04T01:46:33.411Z,90.74
2017-03-04T01:47:16.264Z,90.74
2017-03-04T01:47:58.711Z,90.74
2017-03-04T01:49:59.437Z,90.55
2017-03-04T01:52:21.622Z,90.64
2017-03-04T01:53:04.185Z,90.74
2017-03-04T01:54:53.968Z,90.36
2017-03-04T01:55:37.035Z,90.93
2017-03-04T01:56:19.585Z,91.13
2017-03-04T01:57:02.404Z,90.84
2017-03-04T01:57:45.056Z,90.84
2017-03-04T01:58:27.821Z,90.84
2017-03-04T01:59:10.697Z,90.55
2017-03-04T01:59:53.313Z,90.45
2017-03-04T02:00:35.749Z,90.84
2017-03-04T02:02:24.710Z,90.93
2017-03-04T02:03:05.257Z,90.84
2017-03-04T02:03:45.802Z,90.84
2017-03-04T02:04:26.350Z,91.13
2017-03-04T02:05:06.926Z,90.84
2017-03-04T02:05:47.473Z,90.55
2017-03-04T02:06:28.019Z,90.84
2017-03-04T02:07:08.568Z,91.03
2017-03-04T02:07:49.112Z,90.74
2017-03-04T02:08:29.664Z,90.74
2017-03-04T02:09:10.205Z,90.64
2017-03-04T02:09:50.750Z,90.64
2017-03-04T02:10:31.293Z,90.64
2017-03-04T02:11:11.829Z,90.74
2017-03-04T02:11:52.360Z,91.03
2017-03-04T02:12:32.905Z,90.55
2017-03-04T02:13:13.434Z,90.74
2017-03-04T02:13:53.981Z,90.5
2017-03-04T02:14:34.532Z,90.7
2017-03-04T02:15:15.064Z,90.5
2017-03-04T02:15:55.614Z,90.64
2017-03-04T02:16:36.161Z,90.55
2017-03-04T02:17:16.706Z,90.7
2017-03-04T02:17:57.243Z,90.6
2017-03-04T02:18:37.785Z,90.5
2017-03-04T02:19:18.336Z,90.7
2017-03-04T02:19:58.863Z,90.89
2017-03-04T02:20:39.411Z,90.79
2017-03-04T02:21:19.963Z,90.89
2017-03-04T02:22:00.514Z,90.7
2017-03-04T02:22:41.076Z,90.6
2017-03-04T02:23:21.623Z,90.7
2017-03-04T02:24:02.148Z,90.7
2017-03-04T02:24:42.694Z,90.7
2017-03-04T02:25:23.238Z,90.79
2017-03-04T02:26:03.787Z,90.7
2017-03-04T02:26:44.341Z,90.22
2017-03-04T02:27:24.884Z,90.6
2017-03-04T02:28:05.429Z,90.12
2017-03-04T02:28:45.975Z,90.41
2017-03-04T02:29:26.525Z,90.7
2017-03-04T02:30:07.073Z,90.41
2017-03-04T02:30:47.621Z,90.22
2017-03-04T02:31:28.164Z,90.22
2017-03-04T02:32:08.701Z,90.7
2017-03-04T02:32:49.234Z,90.7
2017-03-04T02:33:29.775Z,91.17
2017-03-04T02:34:10.309Z,90.31
2017-03-04T02:34:50.856Z,90.79
2017-03-04T02:35:31.405Z,90.79
2017-03-04T02:36:11.946Z,90.79
2017-03-04T02:36:52.495Z,90.79
2017-03-04T02:37:33.037Z,90.89
2017-03-04T02:38:13.602Z,90.6
2017-03-04T02:38:54.207Z,90.5
2017-03-04T02:39:34.736Z,90.7
2017-03-04T02:40:15.293Z,90.41
2017-03-04T02:40:55.829Z,90.79
2017-03-04T02:41:36.364Z,90.7
2017-03-04T02:42:16.915Z,90.41
2017-03-04T02:42:57.472Z,90.98
2017-03-04T02:43:38.016Z,91.17
2017-03-04T02:44:18.565Z,91.27
2017-03-04T02:44:59.116Z,91.55
2017-03-04T02:45:39.672Z,91.36
2017-03-04T02:46:20.219Z,91.36
2017-03-04T02:47:00.792Z,91.36
2017-03-04T02:47:41.321Z,91.55
2017-03-04T02:48:21.866Z,91.36
2017-03-04T02:49:02.415Z,91.55
2017-03-04T02:49:42.967Z,91.55
2017-03-04T02:50:23.516Z,91.46
2017-03-04T02:51:04.068Z,91.17
2017-03-04T02:51:44.620Z,91.17
2017-03-04T02:52:25.171Z,91.27
2017-03-04T02:53:05.717Z,91.27
2017-03-04T02:53:46.263Z,91.27
2017-03-04T02:54:26.807Z,91.27
2017-03-04T02:55:07.352Z,91.17
2017-03-04T02:55:47.903Z,91.46
2017-03-04T02:56:28.444Z,91.46
2017-03-04T02:57:08.982Z,91.46
2017-03-04T02:57:49.522Z,91.36
2017-03-04T02:58:30.058Z,91.27
2017-03-04T02:59:10.610Z,91.08
2017-03-04T02:59:51.159Z,91.17
2017-03-04T03:00:31.689Z,91.08
2017-03-04T03:01:12.236Z,91.74
2017-03-04T03:01:52.779Z,91.55
2017-03-04T03:02:33.337Z,91.65
2017-03-04T03:03:13.890Z,91.46
2017-03-04T03:03:54.441Z,91.46
2017-03-04T03:04:34.984Z,91.55
2017-03-04T03:05:15.529Z,91.55
2017-03-04T03:05:56.069Z,91.65
2017-03-04T03:06:36.613Z,91.27
2017-03-04T03:07:17.226Z,91.27
2017-03-04T03:07:57.768Z,91.27
2017-03-04T03:08:38.318Z,91.55
2017-03-04T03:09:18.851Z,91.36
2017-03-04T03:09:59.397Z,91.36
2017-03-04T03:10:39.946Z,91.55
2017-03-04T03:11:20.489Z,91.46
2017-03-04T03:12:01.038Z,91.55
2017-03-04T03:12:41.588Z,91.36
2017-03-04T03:13:22.130Z,91.55
2017-03-04T03:14:02.677Z,91.55
2017-03-04T03:14:43.205Z,91.36
2017-03-04T03:15:23.752Z,91.36
2017-03-04T03:16:04.284Z,91.36
2017-03-04T03:16:44.828Z,91.55
2017-03-04T03:17:25.379Z,91.36
2017-03-04T03:18:05.931Z,91.46
2017-03-04T03:18:46.460Z,91.36
2017-03-04T03:19:27.008Z,91.36
2017-03-04T03:20:07.549Z,91.36
2017-03-04T03:20:48.098Z,91.55
2017-03-04T03:21:28.643Z,91.41
2017-03-04T03:22:09.186Z,91.65
2017-03-04T03:22:49.713Z,91.41
2017-03-04T03:23:30.288Z,91.5
2017-03-04T03:24:10.846Z,91.36
2017-03-04T03:24:51.365Z,91.41
2017-03-04T03:25:31.911Z,91.36
2017-03-04T03:26:12.446Z,91.41
2017-03-04T03:26:52.990Z,91.36
2017-03-04T03:27:33.520Z,91.55
2017-03-04T03:28:14.067Z,91.5
2017-03-04T03:28:54.616Z,91.5
2017-03-04T03:29:35.170Z,91.5
2017-03-04T03:30:15.718Z,91.31
2017-03-04T03:30:56.257Z,91.36
2017-03-04T03:31:36.801Z,91.5
2017-03-04T03:32:17.347Z,91.55
2017-03-04T03:32:57.895Z,91.5
2017-03-04T03:33:38.444Z,91.5
2017-03-04T03:34:18.993Z,91.5
2017-03-04T03:34:59.532Z,91.41
2017-03-04T03:35:40.079Z,91.55
2017-03-04T03:36:20.620Z,91.6
2017-03-04T03:37:01.162Z,91.6
2017-03-04T03:37:41.702Z,91.69
2017-03-04T03:38:22.262Z,91.69
2017-03-04T03:39:02.785Z,91.13
2017-03-04T03:39:43.334Z,91.55
2017-03-04T03:40:23.880Z,90.98
2017-03-04T03:41:04.431Z,91.08
2017-03-04T03:41:44.974Z,91.03
2017-03-04T03:42:25.527Z,91.41
2017-03-04T03:43:06.069Z,91.46
2017-03-04T03:43:46.614Z,91.46
2017-03-04T03:44:27.159Z,91.36
2017-03-04T03:45:07.707Z,91.27
2017-03-04T03:45:48.249Z,91.27
2017-03-04T03:46:28.788Z,91.27
2017-03-04T03:47:09.335Z,91.55
2017-03-04T03:47:49.875Z,91.46
2017-03-04T03:48:30.413Z,91.65
2017-03-04T03:49:10.965Z,91.46
2017-03-04T03:49:51.494Z,91.36
2017-03-04T03:50:32.044Z,91.55
2017-03-04T03:51:12.597Z,91.55
2017-03-04T03:51:53.142Z,91.27
2017-03-04T03:52:33.692Z,91.55
2017-03-04T03:53:14.245Z,90.89
2017-03-04T03:53:54.790Z,90.5
2017-03-04T03:54:35.338Z,90.41
2017-03-04T03:55:15.883Z,90.89
2017-03-04T03:55:56.428Z,90.6
2017-03-04T03:56:36.973Z,90.7
2017-03-04T03:57:17.520Z,90.7
2017-03-04T03:57:58.062Z,90.5
2017-03-04T03:58:38.598Z,90.89
2017-03-04T03:59:19.140Z,90.79
2017-03-04T03:59:59.680Z,90.7
2017-03-04T04:00:40.223Z,90.7
2017-03-04T04:01:20.758Z,90.79
2017-03-04T04:02:01.302Z,91.17
2017-03-04T04:02:41.851Z,90.5
2017-03-04T04:03:22.396Z,90.31
2017-03-04T04:04:02.943Z,90.27
2017-03-04T04:04:43.491Z,90.27
2017-03-04T04:05:24.059Z,90.17
2017-03-04T04:06:04.597Z,90.17
2017-03-04T04:06:45.141Z,90.27
2017-03-04T04:07:25.687Z,90.65
2017-03-04T04:08:06.236Z,90.17
2017-03-04T04:08:46.769Z,90.17
2017-03-04T04:09:27.368Z,90.17
2017-03-04T04:10:07.914Z,90.65
2017-03-04T04:10:48.461Z,90.65
2017-03-04T04:11:29.016Z,90.27
2017-03-04T04:12:09.561Z,90.17
2017-03-04T04:12:50.107Z,90.36
2017-03-04T04:13:30.649Z,90.36
2017-03-04T04:14:11.195Z,90.36
2017-03-04T04:14:51.739Z,90.36
2017-03-04T04:15:32.274Z,90.08
2017-03-04T04:16:12.822Z,90.56
2017-03-04T04:16:53.347Z,90.36
2017-03-04T04:17:33.894Z,90.65
2017-03-04T04:18:14.427Z,90.36
2017-03-04T04:18:54.973Z,90.65
2017-03-04T04:19:35.525Z,90.36
2017-03-04T04:20:16.075Z,90.46
2017-03-04T04:20:56.625Z,90.36
2017-03-04T04:21:37.175Z,90.61
2017-03-04T04:22:17.727Z,90.61
2017-03-04T04:22:58.277Z,90.22
2017-03-04T04:23:38.836Z,90.22
2017-03-04T04:24:19.383Z,90.61
2017-03-04T04:24:59.930Z,90.99
2017-03-04T04:25:40.481Z,90.7
2017-03-04T04:26:21.032Z,90.32
2017-03-04T04:27:01.568Z,91.08
2017-03-04T04:27:42.122Z,90.7
2017-03-04T04:28:22.667Z,90.61
2017-03-04T04:29:03.212Z,90.8
2017-03-04T04:29:43.756Z,90.8
2017-03-04T04:30:24.287Z,90.89
2017-03-04T04:31:04.820Z,90.61
2017-03-04T04:31:45.360Z,90.61
2017-03-04T04:32:25.890Z,90.61
2017-03-04T04:33:06.438Z,90.7
2017-03-04T04:33:46.992Z,90.7
2017-03-04T04:34:27.543Z,90.42
2017-03-04T04:35:08.090Z,90.32
2017-03-04T04:35:48.641Z,90.32
2017-03-04T04:36:29.192Z,90.42
2017-03-04T04:37:09.716Z,90.89
2017-03-04T04:37:50.259Z,90.42
2017-03-04T04:38:30.794Z,90.99
2017-03-04T04:39:11.321Z,91.08
2017-03-04T04:39:51.870Z,91.27
2017-03-04T04:40:32.409Z,91.46
2017-03-04T04:41:12.946Z,91.37
2017-03-04T04:41:53.493Z,91.37
2017-03-04T04:42:34.037Z,91.46
2017-03-04T04:43:14.585Z,91.37
2017-03-04T04:43:55.134Z,91.46
2017-03-04T04:44:35.676Z,91.46
2017-03-04T04:45:16.221Z,91.65
2017-03-04T04:45:56.763Z,91.65
2017-03-04T04:46:37.304Z,91.08
2017-03-04T04:47:17.853Z,91.27
2017-03-04T04:47:58.391Z,91.37
2017-03-04T04:48:38.929Z,91.08
2017-03-04T04:49:19.477Z,91.08
2017-03-04T04:50:00.029Z,91.56
2017-03-04T04:50:40.558Z,91.37
2017-03-04T04:51:21.167Z,91.46
2017-03-04T04:52:01.710Z,91.17
2017-03-04T04:52:42.256Z,91.27
2017-03-04T04:53:22.790Z,91.27
2017-03-04T04:54:03.344Z,91.17
2017-03-04T04:54:43.885Z,91.84
2017-03-04T04:55:24.428Z,91.84
2017-03-04T04:56:04.965Z,91.46
2017-03-04T04:56:45.513Z,91.46
2017-03-04T04:57:26.068Z,91.46
2017-03-04T04:58:06.615Z,92.03
2017-03-04T04:58:47.163Z,92.13
2017-03-04T04:59:27.703Z,92.13
2017-03-04T05:00:08.247Z,92.03
2017-03-04T05:00:48.793Z,92.13
2017-03-04T05:01:29.333Z,91.65
2017-03-04T05:02:09.949Z,91.84
2017-03-04T05:02:50.476Z,91.65
2017-03-04T05:03:31.024Z,91.84
2017-03-04T05:04:11.554Z,92.27
2017-03-04T05:04:52.099Z,92.18
2017-03-04T05:05:32.645Z,92.36
2017-03-04T05:06:13.188Z,92.18
2017-03-04T05:06:53.725Z,92.27
2017-03-04T05:07:34.261Z,91.89
2017-03-04T05:08:14.805Z,91.99
2017-03-04T05:08:55.349Z,92.18
2017-03-04T05:09:35.893Z,91.89
2017-03-04T05:10:16.436Z,91.6
2017-03-04T05:10:56.979Z,91.7
2017-03-04T05:11:37.532Z,91.99
2017-03-04T05:12:18.082Z,91.51
2017-03-04T05:12:58.632Z,92.27
2017-03-04T05:13:39.177Z,91.89
2017-03-04T05:14:19.711Z,92.27
2017-03-04T05:15:00.261Z,92.18
2017-03-04T05:15:40.808Z,92.18
2017-03-04T05:16:21.356Z,91.89
2017-03-04T05:17:01.889Z,92.36
2017-03-04T05:17:42.517Z,92.27
2017-03-04T05:18:23.102Z,91.51
2017-03-04T05:19:03.641Z,91.99
2017-03-04T05:19:44.174Z,92.18
2017-03-04T05:20:24.716Z,92.36
2017-03-04T05:21:05.367Z,92.18
2017-03-04T05:21:45.896Z,91.84
2017-03-04T05:22:26.577Z,92.22
2017-03-04T05:23:07.124Z,92.22
2017-03-04T05:23:47.674Z,91.84
2017-03-04T05:24:28.225Z,92.22
2017-03-04T05:25:08.865Z,92.41
2017-03-04T05:25:49.407Z,92.41
2017-03-04T05:26:29.960Z,92.22
2017-03-04T05:27:10.503Z,92.13
2017-03-04T05:27:51.045Z,92.13
2017-03-04T05:28:31.596Z,91.84
2017-03-04T05:29:12.148Z,92.22
2017-03-04T05:29:52.695Z,92.22
2017-03-04T05:30:33.243Z,92.6
2017-03-04T05:31:13.789Z,92.41
2017-03-04T05:31:54.340Z,92.41
2017-03-04T05:32:34.892Z,92.32
2017-03-04T05:33:15.437Z,92.13
2017-03-04T05:33:55.979Z,92.03
2017-03-04T05:34:36.529Z,91.84
2017-03-04T05:35:17.070Z,91.74
2017-03-04T05:35:57.617Z,91.65
2017-03-04T05:36:38.144Z,91.84
2017-03-04T05:37:18.692Z,91.65
2017-03-04T05:37:59.243Z,91.94
2017-03-04T05:38:39.792Z,91.84
2017-03-04T05:39:20.343Z,91.84
2017-03-04T05:40:00.893Z,92.22
2017-03-04T05:40:41.444Z,92.13
2017-03-04T05:41:21.996Z,91.94
2017-03-04T05:42:02.532Z,91.94
2017-03-04T05:42:43.079Z,91.94
2017-03-04T05:43:23.627Z,91.89
2017-03-04T05:44:04.171Z,91.94
2017-03-04T05:44:44.744Z,91.84
2017-03-04T05:45:25.282Z,91.94
2017-03-04T05:46:05.830Z,91.84
2017-03-04T05:46:46.375Z,92.13
2017-03-04T05:47:26.920Z,91.94
2017-03-04T05:48:07.469Z,92.13
2017-03-04T05:48:48.072Z,92.13
2017-03-04T05:49:28.673Z,92.22
2017-03-04T05:50:09.216Z,91.84
2017-03-04T05:50:49.763Z,92.13
2017-03-04T05:51:30.312Z,92.13
2017-03-04T05:52:10.850Z,91.94
2017-03-04T05:52:51.389Z,92.22
2017-03-04T05:53:31.992Z,92.13
2017-03-04T05:54:12.541Z,92.03
2017-03-04T05:54:53.134Z,91.94
2017-03-04T05:55:33.708Z,92.22
2017-03-04T05:56:14.245Z,92.03
2017-03-04T05:56:54.782Z,92.22
2017-03-04T05:57:35.324Z,92.22
2017-03-04T05:58:15.872Z,92.22
2017-03-04T05:58:56.421Z,92.22
2017-03-04T05:59:37.069Z,92.32
2017-03-04T06:00:17.609Z,92.32
2017-03-04T06:00:58.157Z,92.22
2017-03-04T06:01:38.737Z,91.46
2017-03-04T06:02:19.283Z,91.46
2017-03-04T06:02:59.832Z,91.46
2017-03-04T06:03:40.395Z,91.55
2017-03-04T06:04:20.934Z,91.55
2017-03-04T06:05:01.484Z,91.74
2017-03-04T06:05:42.033Z,91.46
2017-03-04T06:06:22.565Z,91.46
2017-03-04T06:07:03.113Z,91.84
2017-03-04T06:07:43.754Z,91.84
2017-03-04T06:08:24.305Z,91.84
2017-03-04T06:09:04.853Z,91.94
2017-03-04T06:09:45.406Z,91.74
2017-03-04T06:10:25.947Z,91.74
2017-03-04T06:11:06.492Z,91.55
2017-03-04T06:11:47.045Z,91.65
2017-03-04T06:12:27.597Z,91.36
2017-03-04T06:13:08.144Z,91.31
2017-03-04T06:13:48.686Z,91.36
2017-03-04T06:14:29.222Z,91.41
2017-03-04T06:15:09.768Z,91.31
2017-03-04T06:15:50.297Z,91.31
2017-03-04T06:16:30.847Z,91.51
2017-03-04T06:17:11.396Z,91.51
2017-03-04T06:17:51.936Z,91.31
2017-03-04T06:18:32.480Z,91.7
2017-03-04T06:19:13.031Z,91.13
2017-03-04T06:19:53.586Z,91.03
2017-03-04T06:20:34.134Z,91.03
2017-03-04T06:21:14.718Z,91.22
2017-03-04T06:21:55.254Z,91.31
2017-03-04T06:22:35.810Z,91.22
2017-03-04T06:23:16.332Z,91.22
2017-03-04T06:23:56.908Z,91.51
2017-03-04T06:24:38.308Z,91.7
2017-03-04T06:25:18.806Z,91.6
2017-03-04T06:25:59.344Z,91.6
2017-03-04T06:26:39.886Z,91.51
2017-03-04T06:27:20.434Z,91.41
2017-03-04T06:28:00.973Z,91.41
2017-03-04T06:28:41.508Z,91.51
2017-03-04T06:29:22.041Z,91.41
2017-03-04T06:30:02.592Z,91.51
2017-03-04T06:30:43.133Z,91.31
2017-03-04T06:31:23.666Z,91.22
2017-03-04T06:32:04.212Z,91.6
2017-03-04T06:32:44.777Z,90.94
2017-03-04T06:33:25.317Z,91.7
2017-03-04T06:34:05.867Z,90.94
2017-03-04T06:34:46.415Z,91.51
2017-03-04T06:35:26.966Z,91.13
2017-03-04T06:36:07.519Z,90.94
2017-03-04T06:36:48.072Z,91.13
2017-03-04T06:37:28.618Z,90.84
2017-03-04T06:38:09.172Z,91.7
2017-03-04T06:38:49.718Z,90.84
2017-03-04T06:39:30.256Z,90.94
2017-03-04T06:40:10.802Z,91.51
2017-03-04T06:40:51.347Z,90.84
2017-03-04T06:41:31.888Z,91.51
2017-03-04T06:42:12.468Z,90.46
2017-03-04T06:42:53.043Z,90.75
2017-03-04T06:43:33.654Z,90.46
2017-03-04T06:44:14.244Z,90.46
2017-03-04T06:44:54.885Z,90.46
2017-03-04T06:45:35.426Z,90.84
2017-03-04T06:46:15.977Z,90.65
2017-03-04T06:46:56.642Z,90.46
2017-03-04T06:47:37.438Z,90.65
2017-03-04T06:48:17.967Z,90.46
2017-03-04T06:48:58.519Z,90.65
2017-03-04T06:49:39.072Z,90.65
2017-03-04T06:50:19.600Z,90.65
2017-03-04T06:51:00.162Z,90.94
2017-03-04T06:51:40.699Z,90.84
2017-03-04T06:52:21.250Z,90.65
2017-03-04T06:53:01.801Z,90.94
2017-03-04T06:53:42.363Z,90.65
2017-03-04T06:54:22.950Z,90.65
2017-03-04T06:55:03.488Z,90.94
2017-03-04T06:55:44.007Z,90.65
2017-03-04T06:56:24.553Z,90.75
2017-03-04T06:57:05.106Z,90.65
2017-03-04T06:57:45.655Z,90.36
2017-03-04T06:58:26.200Z,90.36
2017-03-04T06:59:06.759Z,91.03
2017-03-04T06:59:47.309Z,90.36
2017-03-04T07:00:27.861Z,90.75
2017-03-04T07:01:08.437Z,91.03
2017-03-04T07:01:48.984Z,90.75
2017-03-04T07:02:29.519Z,90.84
2017-03-04T07:03:10.063Z,90.99
2017-03-04T07:03:50.659Z,91.31
2017-03-04T07:04:31.193Z,91.22
2017-03-04T07:05:11.762Z,91.51
2017-03-04T07:05:52.303Z,91.51
2017-03-04T07:06:32.846Z,91.41
2017-03-04T07:07:13.393Z,91.51
2017-03-04T07:07:53.943Z,91.51
2017-03-04T07:08:34.470Z,91.31
2017-03-04T07:09:15.100Z,91.51
2017-03-04T07:09:55.639Z,91.51
2017-03-04T07:10:36.188Z,91.46
2017-03-04T07:11:16.727Z,91.41
2017-03-04T07:11:57.297Z,91.41
2017-03-04T07:12:37.835Z,91.51
2017-03-04T07:13:18.377Z,91.51
2017-03-04T07:13:58.910Z,91.37
2017-03-04T07:14:39.518Z,91.41
2017-03-04T07:15:20.062Z,91.51
2017-03-04T07:16:00.609Z,91.41
2017-03-04T07:16:41.133Z,91.51
2017-03-04T07:17:21.667Z,91.31
2017-03-04T07:18:02.216Z,91.27
2017-03-04T07:18:42.763Z,91.46
2017-03-04T07:19:23.313Z,91.51
2017-03-04T07:20:03.875Z,91.51
2017-03-04T07:20:44.391Z,91.51
2017-03-04T07:21:24.961Z,91.51
2017-03-04T07:22:05.513Z,91.51
2017-03-04T07:22:46.044Z,91.51
2017-03-04T07:23:26.591Z,91.7
2017-03-04T07:24:07.141Z,91.03
2017-03-04T07:24:47.693Z,91.41
2017-03-04T07:25:28.346Z,91.22
2017-03-04T07:26:08.903Z,91.22
2017-03-04T07:26:49.452Z,91.31
2017-03-04T07:27:30.001Z,91.03
2017-03-04T07:28:10.570Z,91.03
2017-03-04T07:28:51.101Z,91.7
2017-03-04T07:29:31.656Z,91.7
2017-03-04T07:30:12.206Z,91.13
2017-03-04T07:30:52.739Z,91.51
2017-03-04T07:31:33.289Z,91.41
2017-03-04T07:32:13.855Z,91.51
2017-03-04T07:32:54.415Z,91.31
2017-03-04T07:33:35.006Z,91.31
2017-03-04T07:34:15.547Z,91.51
2017-03-04T07:34:56.145Z,91.36
2017-03-04T07:35:36.727Z,91.36
2017-03-04T07:36:17.289Z,91.36
2017-03-04T07:36:57.857Z,91.46
2017-03-04T07:37:38.416Z,91.74
2017-03-04T07:38:18.945Z,91.74
2017-03-04T07:38:59.555Z,91.74
2017-03-04T07:39:40.130Z,91.94
2017-03-04T07:40:20.655Z,92.03
2017-03-04T07:41:01.225Z,91.84
2017-03-04T07:41:41.764Z,91.84
2017-03-04T07:42:22.321Z,91.36
2017-03-04T07:43:02.846Z,91.36
2017-03-04T07:43:43.405Z,91.94
2017-03-04T07:44:23.973Z,91.55
2017-03-04T07:45:04.530Z,91.46
2017-03-04T07:45:45.092Z,92.22
2017-03-04T07:46:25.633Z,91.46
2017-03-04T07:47:06.269Z,92.22
2017-03-04T07:47:46.833Z,92.22
2017-03-04T07:48:27.384Z,92.27
2017-03-04T07:49:07.960Z,91.6
2017-03-04T07:49:48.489Z,92.22
2017-03-04T07:50:29.035Z,91.69
2017-03-04T07:51:09.597Z,91.5
2017-03-04T07:51:50.195Z,92.27
2017-03-04T07:52:30.763Z,92.27
2017-03-04T07:53:11.323Z,91.6
2017-03-04T07:53:51.870Z,92.27
2017-03-04T07:54:32.434Z,92.36
2017-03-04T07:55:12.996Z,91.6
2017-03-04T07:55:53.559Z,92.27
2017-03-04T07:56:34.109Z,91.5
2017-03-04T07:57:14.647Z,92.27
2017-03-04T07:57:55.233Z,91.5
2017-03-04T07:58:35.796Z,92.27
2017-03-04T07:59:16.324Z,91.5
2017-03-04T07:59:56.888Z,91.41
2017-03-04T08:00:37.465Z,91.41
2017-03-04T08:01:18.009Z,91.6
2017-03-04T08:01:58.569Z,91.6
2017-03-04T08:02:39.147Z,91.41
2017-03-04T08:03:19.686Z,91.6
2017-03-04T08:04:00.249Z,91.64
2017-03-04T08:04:40.848Z,91.83
2017-03-04T08:05:21.405Z,91.46
2017-03-04T08:06:01.936Z,92.03
2017-03-04T08:06:42.552Z,91.83
2017-03-04T08:07:23.116Z,92.03
2017-03-04T08:08:03.675Z,91.83
2017-03-04T08:08:44.208Z,92.03
2017-03-04T08:09:24.768Z,91.64
2017-03-04T08:10:05.340Z,91.83
2017-03-04T08:10:45.892Z,91.93
2017-03-04T08:11:26.510Z,91.46
2017-03-04T08:12:07.087Z,91.74
2017-03-04T08:12:47.650Z,91.55
2017-03-04T08:13:28.213Z,91.27
2017-03-04T08:14:08.775Z,91.55
2017-03-04T08:14:49.307Z,91.46
2017-03-04T08:15:29.928Z,91.46
2017-03-04T08:16:10.496Z,91.69
2017-03-04T08:16:51.032Z,91.5
2017-03-04T08:17:31.583Z,91.41
2017-03-04T08:18:12.130Z,91.31
2017-03-04T08:18:52.683Z,91.78
2017-03-04T08:19:33.241Z,91.69
2017-03-04T08:20:13.807Z,91.12
2017-03-04T08:20:54.362Z,91.5
2017-03-04T08:21:34.989Z,91.5
2017-03-04T08:22:15.526Z,91.41
2017-03-04T08:22:56.092Z,91.41
2017-03-04T08:23:36.655Z,91.45
2017-03-04T08:24:17.287Z,91.55
2017-03-04T08:24:57.828Z,91.64
2017-03-04T08:25:38.395Z,91.74
2017-03-04T08:26:18.949Z,91.74
2017-03-04T08:26:59.492Z,91.55
2017-03-04T08:27:40.050Z,91.55
2017-03-04T08:28:20.588Z,91.74
2017-03-04T08:29:01.130Z,91.64
2017-03-04T08:29:41.735Z,91.45
2017-03-04T08:30:22.283Z,91.45
2017-03-04T08:31:02.828Z,91.55
2017-03-04T08:31:43.379Z,91.45
2017-03-04T08:32:23.928Z,91.74
2017-03-04T08:33:04.550Z,90.97
2017-03-04T08:33:45.111Z,91.11
2017-03-04T08:34:25.662Z,91.02
2017-03-04T08:35:06.202Z,91.3
2017-03-04T08:35:46.765Z,90.54
2017-03-04T08:36:27.313Z,90.92
2017-03-04T08:37:07.856Z,90.92
2017-03-04T08:37:48.395Z,91.11
2017-03-04T08:38:28.943Z,91.11
2017-03-04T08:39:09.495Z,91.11
2017-03-04T08:39:50.045Z,90.73
2017-03-04T08:40:30.596Z,90.83
2017-03-04T08:41:11.149Z,91.4
2017-03-04T08:41:51.698Z,91.11
2017-03-04T08:42:32.247Z,90.92
2017-03-04T08:43:12.798Z,90.83
2017-03-04T08:43:53.343Z,90.54
2017-03-04T08:44:33.885Z,90.68
2017-03-04T08:45:14.439Z,90.68
2017-03-04T08:45:54.985Z,90.78
2017-03-04T08:46:35.575Z,90.88
2017-03-04T08:47:16.434Z,90.88
2017-03-04T08:47:57.008Z,90.88
2017-03-04T08:48:37.541Z,91.16
2017-03-04T08:49:18.094Z,90.68
2017-03-04T08:49:58.642Z,90.97
2017-03-04T08:50:39.191Z,91.06
2017-03-04T08:51:19.742Z,90.88
2017-03-04T08:52:00.292Z,90.68
2017-03-04T08:52:40.841Z,90.59
2017-03-04T08:53:21.398Z,90.59
2017-03-04T08:54:01.949Z,90.68
2017-03-04T08:54:42.497Z,90.78
2017-03-04T08:55:23.047Z,90.78
2017-03-04T08:56:03.584Z,90.49
2017-03-04T08:56:44.135Z,90.59
2017-03-04T08:57:24.686Z,90.39
2017-03-04T08:58:05.231Z,90.39
2017-03-04T08:58:45.779Z,90.49
2017-03-04T08:59:26.332Z,90.3
2017-03-04T09:00:06.880Z,90.2
2017-03-04T09:00:47.430Z,90.01
2017-03-04T09:01:27.976Z,90.11
2017-03-04T09:02:08.519Z,90.2
2017-03-04T09:02:49.094Z,90.2
2017-03-04T09:03:29.636Z,90.01
2017-03-04T09:04:10.188Z,90.16
2017-03-04T09:04:50.773Z,90.16
2017-03-04T09:05:31.313Z,90.3
2017-03-04T09:06:11.863Z,90.01
2017-03-04T09:06:52.438Z,90.11
2017-03-04T09:07:33.066Z,90.11
2017-03-04T09:08:13.619Z,90.2
2017-03-04T09:08:54.216Z,90.16
2017-03-04T09:09:34.797Z,90.25
2017-03-04T09:10:15.406Z,90.39
2017-03-04T09:10:55.994Z,90.25
2017-03-04T09:11:36.603Z,90.34
2017-03-04T09:12:17.133Z,89.96
2017-03-04T09:12:57.678Z,89.96
2017-03-04T09:13:38.249Z,89.77
2017-03-04T09:14:18.814Z,89.77
2017-03-04T09:14:59.375Z,89.58
2017-03-04T09:15:39.913Z,90.25
2017-03-04T09:16:20.461Z,90.16
2017-03-04T09:17:01.014Z,89.77
2017-03-04T09:17:41.632Z,89.96
2017-03-04T09:18:22.180Z,90.44
2017-03-04T09:19:02.729Z,89.77
2017-03-04T09:19:43.269Z,90.06
2017-03-04T09:20:23.819Z,89.77
2017-03-04T09:21:04.371Z,89.29
2017-03-04T09:21:44.971Z,89.87
2017-03-04T09:22:25.592Z,89.1
2017-03-04T09:23:06.145Z,88.81
2017-03-04T09:23:46.717Z,88.81
2017-03-04T09:24:27.294Z,88.34
2017-03-04T09:25:07.825Z,88.15
2017-03-04T09:25:48.381Z,88.15